createdAt,value
2023-05-11T00:00:46.079Z,8.80
2023-05-11T00:03:13.100Z,8.80
2023-05-11T00:05:40.058Z,8.80
2023-05-11T00:08:06.787Z,8.80
2023-05-11T00:10:33.618Z,8.80
2023-05-11T00:13:02.079Z,8.80
2023-05-11T00:15:28.856Z,8.70
2023-05-11T00:17:55.654Z,8.70
2023-05-11T00:20:22.495Z,8.70
2023-05-11T00:22:49.340Z,8.70
2023-05-11T00:25:16.291Z,8.70
2023-05-11T00:27:43.267Z,8.70
2023-05-11T00:30:12.968Z,8.70
2023-05-11T00:32:39.814Z,8.70
2023-05-11T00:35:07.823Z,8.70
2023-05-11T00:37:34.651Z,8.70
2023-05-11T00:40:01.479Z,8.60
2023-05-11T00:42:28.307Z,8.70
2023-05-11T00:44:55.052Z,8.70
2023-05-11T00:47:23.274Z,8.70
2023-05-11T00:49:52.053Z,8.70
2023-05-11T00:52:19.104Z,8.70
2023-05-11T00:54:47.080Z,8.70
2023-05-11T00:57:13.876Z,8.70
2023-05-11T00:59:40.915Z,8.70
2023-05-11T01:02:07.967Z,8.70
2023-05-11T01:04:36.160Z,8.70
2023-05-11T01:07:10.134Z,8.70
2023-05-11T01:09:42.744Z,8.70
2023-05-11T01:12:18.531Z,8.70
2023-05-11T01:14:54.141Z,8.70
2023-05-11T01:17:29.023Z,8.70
2023-05-11T01:20:02.858Z,8.70
2023-05-11T01:22:42.222Z,8.70
2023-05-11T01:25:27.165Z,8.70
2023-05-11T01:28:15.636Z,8.70
2023-05-11T01:30:49.632Z,8.70
2023-05-11T01:33:17.942Z,8.70
2023-05-11T01:35:51.641Z,8.60
2023-05-11T01:38:21.387Z,8.70
2023-05-11T01:40:54.250Z,8.60
2023-05-11T01:43:25.285Z,8.60
2023-05-11T01:45:59.000Z,8.70
2023-05-11T01:48:29.370Z,8.70
2023-05-11T01:51:00.260Z,8.60
2023-05-11T01:53:29.291Z,8.60
2023-05-11T01:55:58.112Z,8.60
2023-05-11T01:58:25.495Z,8.60
2023-05-11T02:00:54.308Z,8.70
2023-05-11T02:03:22.080Z,8.60
2023-05-11T02:05:50.093Z,8.60
2023-05-11T02:08:18.389Z,8.60
2023-05-11T02:10:46.119Z,8.70
2023-05-11T02:13:14.829Z,8.60
2023-05-11T02:15:43.187Z,8.60
2023-05-11T02:18:13.833Z,8.70
2023-05-11T02:20:43.461Z,8.70
2023-05-11T02:23:10.681Z,8.70
2023-05-11T02:25:39.405Z,8.70
2023-05-11T02:28:06.270Z,8.70
2023-05-11T02:30:39.166Z,8.60
2023-05-11T02:33:07.155Z,8.60
2023-05-11T02:35:39.134Z,8.60
2023-05-11T02:38:06.996Z,8.60
2023-05-11T02:40:38.110Z,8.60
2023-05-11T02:43:09.996Z,8.60
2023-05-11T02:45:37.580Z,8.60
2023-05-11T02:48:09.487Z,8.50
2023-05-11T02:50:39.604Z,8.50
2023-05-11T02:53:10.607Z,8.50
2023-05-11T02:55:37.388Z,8.50
2023-05-11T02:58:04.471Z,8.50
2023-05-11T03:00:31.593Z,8.50
2023-05-11T03:02:58.544Z,8.50
2023-05-11T03:05:25.594Z,8.50
2023-05-11T03:07:57.956Z,8.50
2023-05-11T03:10:25.290Z,8.50
2023-05-11T03:12:52.331Z,8.50
2023-05-11T03:15:20.778Z,8.50
2023-05-11T03:17:48.880Z,8.50
2023-05-11T03:20:17.656Z,8.50
2023-05-11T03:22:46.406Z,8.50
2023-05-11T03:25:17.046Z,8.40
2023-05-11T03:27:45.087Z,8.40
2023-05-11T03:30:14.675Z,8.40
2023-05-11T03:32:41.622Z,8.40
2023-05-11T03:35:09.391Z,8.30
2023-05-11T03:37:37.227Z,8.30
2023-05-11T03:40:05.425Z,8.30
2023-05-11T03:42:35.983Z,8.30
2023-05-11T03:45:03.538Z,8.30
2023-05-11T03:47:33.130Z,8.30
2023-05-11T03:50:00.855Z,8.30
2023-05-11T03:52:28.087Z,8.20
2023-05-11T03:54:54.994Z,8.30
2023-05-11T03:57:24.623Z,8.20
2023-05-11T03:59:52.865Z,8.20
2023-05-11T04:02:19.700Z,8.20
2023-05-11T04:04:46.556Z,8.20
2023-05-11T04:07:13.408Z,8.20
2023-05-11T04:09:40.180Z,8.20
2023-05-11T04:12:07.517Z,8.20
2023-05-11T04:14:34.353Z,8.20
2023-05-11T04:17:02.452Z,8.20
2023-05-11T04:19:29.253Z,8.10
2023-05-11T04:21:56.134Z,8.20
2023-05-11T04:24:22.907Z,8.20
2023-05-11T04:26:55.074Z,8.20
2023-05-11T04:29:21.892Z,8.20
2023-05-11T04:31:48.711Z,8.20
2023-05-11T04:34:16.885Z,8.20
2023-05-11T04:36:46.581Z,8.20
2023-05-11T04:39:13.329Z,8.20
2023-05-11T04:41:40.110Z,8.20
2023-05-11T04:44:06.838Z,8.20
2023-05-11T04:46:33.687Z,8.20
2023-05-11T04:49:00.461Z,8.20
2023-05-11T04:51:28.770Z,8.20
2023-05-11T04:53:55.521Z,8.10
2023-05-11T04:56:22.338Z,8.10
2023-05-11T04:58:49.140Z,8.20
2023-05-11T05:01:16.003Z,8.20
2023-05-11T05:03:42.787Z,8.20
2023-05-11T05:06:09.740Z,8.20
2023-05-11T05:08:37.854Z,8.20
2023-05-11T05:11:04.625Z,8.20
2023-05-11T05:13:31.349Z,8.20
2023-05-11T05:15:58.741Z,8.20
2023-05-11T05:18:25.588Z,8.30
2023-05-11T05:20:52.440Z,8.30
2023-05-11T05:23:19.219Z,8.30
2023-05-11T05:25:47.436Z,8.30
2023-05-11T05:28:14.200Z,8.30
2023-05-11T05:30:41.000Z,8.40
2023-05-11T05:33:07.798Z,8.40
2023-05-11T05:35:35.077Z,8.40
2023-05-11T05:38:01.876Z,8.40
2023-05-11T05:40:28.749Z,8.40
2023-05-11T05:42:56.914Z,8.40
2023-05-11T05:45:23.686Z,8.40
2023-05-11T05:47:50.654Z,8.40
2023-05-11T05:50:17.628Z,8.40
2023-05-11T05:52:45.888Z,8.50
2023-05-11T05:55:12.743Z,8.50
2023-05-11T05:57:39.501Z,8.50
2023-05-11T06:00:10.139Z,8.60
2023-05-11T06:02:37.037Z,8.60
2023-05-11T06:05:04.398Z,8.70
2023-05-11T06:07:31.402Z,8.70
2023-05-11T06:09:58.153Z,8.70
2023-05-11T06:12:24.957Z,8.70
2023-05-11T06:14:53.566Z,8.70
2023-05-11T06:17:28.782Z,8.80
2023-05-11T06:19:56.290Z,8.70
2023-05-11T06:22:23.088Z,8.80
2023-05-11T06:24:50.188Z,8.90
2023-05-11T06:27:18.331Z,8.90
2023-05-11T06:29:45.456Z,8.80
2023-05-11T06:32:12.648Z,8.70
2023-05-11T06:34:41.096Z,8.70
2023-05-11T06:37:08.220Z,8.70
2023-05-11T06:39:36.413Z,8.70
2023-05-11T06:42:06.430Z,8.70
2023-05-11T06:44:33.828Z,8.70
2023-05-11T06:47:00.708Z,8.80
2023-05-11T06:49:27.841Z,8.80
2023-05-11T06:51:55.985Z,8.80
2023-05-11T06:54:22.758Z,8.90
2023-05-11T06:56:49.520Z,9.00
2023-05-11T06:59:16.329Z,9.10
2023-05-11T07:01:43.174Z,9.10
2023-05-11T07:04:10.007Z,9.10
2023-05-11T07:06:36.836Z,9.10
2023-05-11T07:09:05.002Z,9.10
2023-05-11T07:11:31.782Z,9.10
2023-05-11T07:13:58.569Z,9.10
2023-05-11T07:16:25.456Z,9.00
2023-05-11T07:18:52.307Z,9.00
2023-05-11T07:21:19.130Z,8.90
2023-05-11T07:23:45.895Z,8.90
2023-05-11T07:26:14.141Z,8.90
2023-05-11T07:28:40.915Z,8.90
2023-05-11T07:31:07.976Z,8.90
2023-05-11T07:33:37.574Z,9.00
2023-05-11T07:36:04.480Z,9.00
2023-05-11T07:38:31.317Z,9.00
2023-05-11T07:40:58.122Z,9.10
2023-05-11T07:43:26.258Z,9.20
2023-05-11T07:45:53.054Z,9.30
2023-05-11T07:48:19.860Z,9.50
2023-05-11T07:50:46.594Z,9.60
2023-05-11T07:53:13.373Z,9.70
2023-05-11T07:55:40.117Z,9.80
2023-05-11T07:58:06.947Z,9.90
2023-05-11T08:00:35.343Z,10.00
2023-05-11T08:03:02.220Z,10.10
2023-05-11T08:05:30.079Z,10.10
2023-05-11T08:07:56.868Z,10.10
2023-05-11T08:10:23.708Z,10.00
2023-05-11T08:12:50.532Z,10.00
2023-05-11T08:15:17.634Z,10.00
2023-05-11T08:17:45.992Z,10.00
2023-05-11T08:20:13.369Z,10.10
2023-05-11T08:22:40.126Z,10.20
2023-05-11T08:25:08.074Z,10.20
2023-05-11T08:27:34.860Z,10.30
2023-05-11T08:30:01.676Z,10.40
2023-05-11T08:32:28.569Z,10.60
2023-05-11T08:34:57.259Z,10.70
2023-05-11T08:37:24.121Z,10.80
2023-05-11T08:39:50.829Z,11.00
2023-05-11T08:42:17.675Z,11.00
2023-05-11T08:44:44.841Z,11.00
2023-05-11T08:47:22.552Z,11.20
2023-05-11T08:49:51.199Z,11.20
2023-05-11T08:52:19.985Z,11.20
2023-05-11T08:54:47.000Z,11.00
2023-05-11T08:57:14.446Z,11.00
2023-05-11T08:59:43.889Z,11.00
2023-05-11T09:02:14.428Z,11.00
2023-05-11T09:04:42.007Z,10.90
2023-05-11T09:07:10.591Z,11.00
2023-05-11T09:09:39.622Z,10.90
2023-05-11T09:12:07.670Z,10.90
2023-05-11T09:14:34.817Z,11.00
2023-05-11T09:17:02.097Z,11.00
2023-05-11T09:19:28.874Z,11.00
2023-05-11T09:21:55.709Z,11.10
2023-05-11T09:24:22.668Z,11.20
2023-05-11T09:27:06.426Z,11.30
2023-05-11T09:29:33.151Z,11.30
2023-05-11T09:31:59.895Z,11.20
2023-05-11T09:34:26.675Z,11.20
2023-05-11T09:36:54.735Z,11.20
2023-05-11T09:42:16.751Z,11.50
2023-05-11T09:44:43.818Z,11.50
2023-05-11T09:47:12.001Z,11.40
2023-05-11T09:49:39.117Z,11.30
2023-05-11T09:52:06.362Z,11.40
2023-05-11T09:54:40.842Z,11.50
2023-05-11T09:57:07.683Z,11.50
2023-05-11T09:59:40.523Z,11.40
2023-05-11T10:02:21.783Z,11.30
2023-05-11T10:04:48.974Z,11.20
2023-05-11T10:07:26.401Z,11.10
2023-05-11T10:09:54.559Z,10.90
2023-05-11T10:12:22.862Z,10.80
2023-05-11T10:14:52.491Z,10.90
2023-05-11T10:17:19.438Z,10.90
2023-05-11T10:19:47.213Z,10.90
2023-05-11T10:22:14.643Z,11.00
2023-05-11T10:24:41.761Z,11.00
2023-05-11T10:27:08.839Z,11.10
2023-05-11T10:29:37.045Z,11.10
2023-05-11T10:32:07.157Z,11.00
2023-05-11T10:34:34.417Z,11.00
2023-05-11T10:37:01.451Z,11.10
2023-05-11T10:39:29.329Z,11.20
2023-05-11T10:42:11.364Z,11.20
2023-05-11T10:44:59.791Z,11.20
2023-05-11T10:48:13.512Z,11.20
2023-05-11T10:50:56.631Z,11.40
2023-05-11T10:53:39.488Z,11.50
2023-05-11T10:56:24.453Z,11.50
2023-05-11T10:59:29.378Z,11.50
2023-05-11T11:01:56.083Z,11.60
2023-05-11T11:04:24.829Z,11.70
2023-05-11T11:07:05.188Z,11.70
2023-05-11T11:09:50.563Z,11.80
2023-05-11T11:12:17.437Z,11.90
2023-05-11T11:14:54.594Z,12.10
2023-05-11T11:17:26.170Z,12.20
2023-05-11T11:19:54.674Z,12.10
2023-05-11T11:22:44.693Z,12.20
2023-05-11T11:25:12.498Z,12.10
2023-05-11T11:27:56.704Z,12.10
2023-05-11T11:30:23.754Z,12.30
2023-05-11T11:32:52.734Z,12.30
2023-05-11T11:35:48.588Z,12.20
2023-05-11T11:38:17.056Z,12.20
2023-05-11T11:43:16.825Z,12.10
2023-05-11T11:45:51.385Z,12.10
2023-05-11T11:48:22.157Z,12.20
2023-05-11T11:51:01.907Z,12.20
2023-05-11T11:54:04.406Z,12.30
2023-05-11T11:56:39.179Z,12.30
2023-05-11T11:59:05.931Z,12.20
2023-05-11T12:01:37.182Z,12.10
2023-05-11T12:04:42.956Z,12.00
2023-05-11T12:07:11.711Z,12.00
2023-05-11T12:09:39.590Z,11.90
2023-05-11T12:12:07.049Z,11.80
2023-05-11T12:14:35.468Z,11.80
2023-05-11T12:17:07.227Z,11.80
2023-05-11T12:19:34.418Z,11.70
2023-05-11T12:22:01.434Z,11.80
2023-05-11T12:24:29.752Z,11.90
2023-05-11T12:26:57.048Z,12.00
2023-05-11T12:29:24.217Z,12.00
2023-05-11T12:31:51.329Z,11.90
2023-05-11T12:34:19.687Z,11.80
2023-05-11T12:36:47.805Z,11.70
2023-05-11T12:39:18.576Z,11.70
2023-05-11T12:41:47.800Z,11.70
2023-05-11T12:44:15.866Z,11.80
2023-05-11T12:46:43.739Z,11.90
2023-05-11T12:49:11.141Z,12.00
2023-05-11T12:51:48.864Z,11.90
2023-05-11T12:54:26.915Z,11.90
2023-05-11T12:56:55.108Z,11.70
2023-05-11T12:59:33.424Z,11.60
2023-05-11T13:02:08.617Z,11.50
2023-05-11T13:04:36.132Z,11.50
2023-05-11T13:07:03.024Z,11.50
2023-05-11T13:09:29.925Z,11.50
2023-05-11T13:12:13.526Z,11.50
2023-05-11T13:14:40.414Z,11.60
2023-05-11T13:17:07.269Z,11.60
2023-05-11T13:19:34.135Z,11.80
2023-05-11T13:22:01.346Z,11.70
2023-05-11T13:24:28.476Z,11.70
2023-05-11T13:26:57.200Z,11.60
2023-05-11T13:29:25.423Z,11.60
2023-05-11T13:31:53.524Z,11.70
2023-05-11T13:34:20.583Z,11.70
2023-05-11T13:36:47.924Z,11.70
2023-05-11T13:39:14.909Z,11.80
2023-05-11T13:41:41.725Z,11.80
2023-05-11T13:44:08.786Z,11.90
2023-05-11T13:46:37.060Z,11.90
2023-05-11T13:49:03.931Z,12.00
2023-05-11T13:51:31.450Z,12.10
2023-05-11T13:53:58.343Z,12.30
2023-05-11T13:56:25.174Z,12.30
2023-05-11T13:58:52.048Z,12.30
2023-05-11T14:01:18.890Z,12.20
2023-05-11T14:03:51.942Z,11.90
2023-05-11T14:06:20.811Z,11.60
2023-05-11T14:08:47.578Z,11.40
2023-05-11T14:11:14.353Z,11.40
2023-05-11T14:13:41.095Z,11.30
2023-05-11T14:16:08.200Z,11.30
2023-05-11T14:18:35.069Z,11.30
2023-05-11T14:21:03.423Z,11.40
2023-05-11T14:23:30.219Z,11.50
2023-05-11T14:25:57.118Z,11.60
2023-05-11T14:28:24.056Z,11.80
2023-05-11T14:30:50.922Z,12.00
2023-05-11T14:33:17.785Z,12.30
2023-05-11T14:35:44.656Z,12.50
2023-05-11T14:38:12.875Z,12.60
2023-05-11T14:40:39.673Z,12.60
2023-05-11T14:43:06.458Z,12.50
2023-05-11T14:45:33.245Z,12.40
2023-05-11T14:48:00.435Z,12.30
2023-05-11T14:50:28.328Z,12.20
2023-05-11T14:52:55.170Z,12.20
2023-05-11T14:55:23.376Z,12.20
2023-05-11T14:57:50.206Z,12.20
2023-05-11T15:00:17.867Z,12.30
2023-05-11T15:02:44.806Z,12.30
2023-05-11T15:05:11.697Z,12.20
2023-05-11T15:07:38.562Z,12.30
2023-05-11T15:10:07.681Z,12.20
2023-05-11T15:12:35.867Z,12.20
2023-05-11T15:15:02.999Z,12.30
2023-05-11T15:17:29.896Z,12.30
2023-05-11T15:19:56.816Z,12.10
2023-05-11T15:22:23.673Z,11.80
2023-05-11T15:24:50.416Z,11.60
2023-05-11T15:27:17.217Z,11.50
2023-05-11T15:29:45.387Z,11.40
2023-05-11T15:32:13.620Z,11.40
2023-05-11T15:34:54.936Z,11.30
2023-05-11T15:37:25.868Z,11.20
2023-05-11T15:39:52.658Z,11.20
2023-05-11T15:42:19.693Z,11.30
2023-05-11T15:44:47.881Z,11.30
2023-05-11T15:47:14.721Z,11.40
2023-05-11T15:49:41.590Z,11.40
2023-05-11T15:52:08.543Z,11.40
2023-05-11T15:54:36.148Z,11.30
2023-05-11T15:57:03.239Z,11.30
2023-05-11T15:59:30.028Z,11.30
2023-05-11T16:01:58.218Z,11.30
2023-05-11T16:04:25.029Z,11.40
2023-05-11T16:06:51.755Z,11.30
2023-05-11T16:09:18.601Z,11.30
2023-05-11T16:11:45.364Z,11.20
2023-05-11T16:14:12.148Z,11.20
2023-05-11T16:16:38.952Z,11.10
2023-05-11T16:19:07.412Z,11.20
2023-05-11T16:21:34.438Z,11.10
2023-05-11T16:24:01.445Z,11.20
2023-05-11T16:26:28.479Z,11.20
2023-05-11T16:28:55.374Z,11.20
2023-05-11T16:31:22.270Z,11.20
2023-05-11T16:33:49.688Z,11.20
2023-05-11T16:36:18.023Z,11.30
2023-05-11T16:38:44.772Z,11.30
2023-05-11T16:41:11.758Z,11.40
2023-05-11T16:43:38.580Z,11.50
2023-05-11T16:46:05.405Z,11.60
2023-05-11T16:48:32.268Z,11.70
2023-05-11T16:50:59.011Z,11.70
2023-05-11T16:53:27.286Z,11.70
2023-05-11T16:55:54.373Z,11.70
2023-05-11T16:58:21.326Z,11.70
2023-05-11T17:00:48.200Z,11.70
2023-05-11T17:03:15.053Z,11.70
2023-05-11T17:05:41.883Z,11.60
2023-05-11T17:08:08.698Z,11.60
2023-05-11T17:10:36.851Z,11.70
2023-05-11T17:13:03.960Z,11.70
2023-05-11T17:15:30.828Z,11.70
2023-05-11T17:17:57.738Z,11.50
2023-05-11T17:20:24.563Z,11.50
2023-05-11T17:22:51.656Z,11.40
2023-05-11T17:25:18.607Z,11.50
2023-05-11T17:27:46.771Z,11.50
2023-05-11T17:30:14.040Z,11.60
2023-05-11T17:32:41.027Z,11.50
2023-05-11T17:35:09.143Z,11.30
2023-05-11T17:37:35.986Z,11.20
2023-05-11T17:40:03.674Z,11.10
2023-05-11T17:42:31.055Z,11.10
2023-05-11T17:44:59.256Z,11.00
2023-05-11T17:47:26.132Z,11.00
2023-05-11T17:49:53.091Z,10.90
2023-05-11T17:52:19.866Z,10.90
2023-05-11T17:54:46.588Z,11.00
2023-05-11T17:57:13.372Z,10.90
2023-05-11T17:59:40.202Z,10.90
2023-05-11T18:02:08.431Z,10.90
2023-05-11T18:04:35.176Z,10.90
2023-05-11T18:07:01.975Z,10.90
2023-05-11T18:09:28.723Z,10.80
2023-05-11T18:11:55.474Z,10.80
2023-05-11T18:14:22.328Z,10.80
2023-05-11T18:16:49.189Z,10.80
2023-05-11T18:19:17.560Z,10.70
2023-05-11T18:21:44.529Z,10.60
2023-05-11T18:24:11.522Z,10.60
2023-05-11T18:26:40.248Z,10.50
2023-05-11T18:29:07.245Z,10.40
2023-05-11T18:31:34.275Z,10.40
2023-05-11T18:34:01.206Z,10.40
2023-05-11T18:36:29.917Z,10.40
2023-05-11T18:38:56.825Z,10.40
2023-05-11T18:41:23.782Z,10.40
2023-05-11T18:43:50.676Z,10.40
2023-05-11T18:46:17.665Z,10.40
2023-05-11T18:48:44.697Z,10.50
2023-05-11T18:51:11.464Z,10.50
2023-05-11T18:53:39.737Z,10.50
2023-05-11T18:56:06.847Z,10.50
2023-05-11T18:58:33.712Z,10.50
2023-05-11T19:01:00.648Z,10.50
2023-05-11T19:03:27.699Z,10.50
2023-05-11T19:05:54.539Z,10.50
2023-05-11T19:08:21.385Z,10.40
2023-05-11T19:10:49.787Z,10.50
2023-05-11T19:13:16.687Z,10.50
2023-05-11T19:15:43.498Z,10.50
2023-05-11T19:18:11.274Z,10.50
2023-05-11T19:20:39.218Z,10.50
2023-05-11T19:23:06.383Z,10.50
2023-05-11T19:25:33.373Z,10.50
2023-05-11T19:28:01.681Z,10.50
2023-05-11T19:30:28.505Z,10.60
2023-05-11T19:32:55.507Z,10.50
2023-05-11T19:35:22.444Z,10.50
2023-05-11T19:37:49.547Z,10.50
2023-05-11T19:42:46.180Z,10.60
2023-05-11T19:45:14.971Z,10.60
2023-05-11T19:47:41.936Z,10.60
2023-05-11T19:50:09.833Z,10.60
2023-05-11T19:52:37.057Z,10.60
2023-05-11T19:55:04.136Z,10.60
2023-05-11T19:57:31.222Z,10.60
2023-05-11T19:59:58.753Z,10.60
2023-05-11T20:02:27.196Z,10.50
2023-05-11T20:04:54.214Z,10.50
2023-05-11T20:07:21.000Z,10.50
2023-05-11T20:09:47.893Z,10.60
2023-05-11T20:12:14.942Z,10.50
2023-05-11T20:14:41.995Z,10.50
2023-05-11T20:17:08.913Z,10.60
2023-05-11T20:19:37.854Z,10.60
2023-05-11T20:22:05.142Z,10.60
2023-05-11T20:24:32.008Z,10.60
2023-05-11T20:26:58.849Z,10.60
2023-05-11T20:29:25.637Z,10.60
2023-05-11T20:31:52.673Z,10.70
2023-05-11T20:34:19.607Z,10.70
2023-05-11T20:36:48.047Z,10.60
2023-05-11T20:39:14.796Z,10.70
2023-05-11T20:41:41.617Z,10.70
2023-05-11T20:44:08.400Z,10.70
2023-05-11T20:46:35.218Z,10.70
2023-05-11T20:49:02.131Z,10.70
2023-05-11T20:51:28.981Z,10.70
2023-05-11T20:53:57.325Z,10.70
2023-05-11T20:56:24.227Z,10.60
2023-05-11T20:58:51.033Z,10.70
2023-05-11T21:01:18.013Z,10.70
2023-05-11T21:03:45.054Z,10.70
2023-05-11T21:06:11.890Z,10.70
2023-05-11T21:08:38.684Z,10.70
2023-05-11T21:11:07.044Z,10.70
2023-05-11T21:13:34.086Z,10.70
2023-05-11T21:16:00.947Z,10.70
2023-05-11T21:18:27.938Z,10.70
2023-05-11T21:20:54.920Z,10.60
2023-05-11T21:23:21.710Z,10.70
2023-05-11T21:25:52.179Z,10.60
2023-05-11T21:28:20.455Z,10.60
2023-05-11T21:30:47.336Z,10.60
2023-05-11T21:33:15.009Z,10.60
2023-05-11T21:35:41.980Z,10.60
2023-05-11T21:38:08.802Z,10.50
2023-05-11T21:40:35.759Z,10.50
2023-05-11T21:43:02.623Z,10.50
2023-05-11T21:45:30.998Z,10.50
2023-05-11T21:47:57.983Z,10.40
2023-05-11T21:50:24.872Z,10.40
2023-05-11T21:52:51.718Z,10.40
2023-05-11T21:55:18.724Z,10.40
2023-05-11T21:57:45.526Z,10.40
2023-05-11T22:00:13.604Z,10.30
2023-05-11T22:02:41.967Z,10.30
2023-05-11T22:05:09.354Z,10.30
2023-05-11T22:07:36.323Z,10.30
2023-05-11T22:10:03.186Z,10.30
2023-05-11T22:12:30.328Z,10.30
2023-05-11T22:14:57.426Z,10.30
2023-05-11T22:17:24.316Z,10.30
2023-05-11T22:19:52.686Z,10.30
2023-05-11T22:22:19.433Z,10.30
2023-05-11T22:24:46.424Z,10.40
2023-05-11T22:27:13.500Z,10.40
2023-05-11T22:29:40.406Z,10.50
2023-05-11T22:32:08.087Z,10.40
2023-05-11T22:34:35.065Z,10.40
2023-05-11T22:37:03.500Z,10.50
2023-05-11T22:39:30.502Z,10.50
2023-05-11T22:41:57.579Z,10.50
2023-05-11T22:44:24.554Z,10.40
2023-05-11T22:46:51.493Z,10.40
2023-05-11T22:49:18.433Z,10.40
2023-05-11T22:51:45.264Z,10.40
2023-05-11T22:54:14.898Z,10.30
2023-05-11T22:56:41.732Z,10.30
2023-05-11T22:59:08.625Z,10.30
2023-05-11T23:01:35.631Z,10.20
2023-05-11T23:04:02.562Z,10.20
2023-05-11T23:06:29.364Z,10.20
2023-05-11T23:08:56.215Z,10.20
2023-05-11T23:11:24.516Z,10.20
2023-05-11T23:13:51.328Z,10.20
2023-05-11T23:16:18.243Z,10.20
2023-05-11T23:18:45.273Z,10.10
2023-05-11T23:21:12.284Z,10.10
2023-05-11T23:23:39.181Z,10.10
2023-05-11T23:26:06.015Z,10.10
2023-05-11T23:28:34.497Z,10.10
2023-05-11T23:31:01.598Z,10.10
2023-05-11T23:33:28.502Z,10.00
2023-05-11T23:35:55.454Z,10.00
2023-05-11T23:38:22.400Z,10.00
2023-05-11T23:40:49.808Z,10.00
2023-05-11T23:43:16.604Z,10.00
2023-05-11T23:45:44.868Z,10.00
2023-05-11T23:48:11.897Z,9.90
2023-05-11T23:50:38.838Z,9.90
2023-05-11T23:53:05.699Z,9.90
2023-05-11T23:55:32.999Z,9.90
2023-05-11T23:57:59.882Z,9.90
